Time;durP1;ratioP1;P1;durP2;ratioP2;P2;SDS_P1;SDS_P2;PMS_P1;PMS_P2;Temp;Humidity;BMP_temperature;BMP_pressure;BME280_temperature;BME280_humidity;BME280_pressure;Samples;Min_cycle;Max_cycle;Signal;HPM_P1;HPM_P2
2021/12/02 00:00:45;;;;;;;5.60;0.90;;;4.80;99.90;;;;;;5014168;28;20044;-68
2021/12/02 00:03:12;;;;;;;3.33;1.40;;;4.80;99.90;;;;;;5024346;28;20076;-68
2021/12/02 00:05:37;;;;;;;4.20;1.83;;;4.80;99.90;;;;;;5006906;28;20730;-68
2021/12/02 00:08:03;;;;;;;1.33;0.85;;;4.80;99.90;;;;;;5013118;28;20029;-70
2021/12/02 00:10:31;;;;;;;1.63;1.05;;;4.80;99.90;;;;;;5018052;28;20076;-68
2021/12/02 00:12:58;;;;;;;2.00;1.48;;;4.80;99.90;;;;;;5007315;28;20022;-68
2021/12/02 00:21:24;;;;;;;1.88;1.13;;;4.70;99.90;;;;;;5008176;28;20029;-69
2021/12/02 00:24:07;;;;;;;3.42;1.40;;;4.70;99.90;;;;;;5007674;28;20076;-69
2021/12/02 00:26:38;;;;;;;3.70;2.05;;;4.70;99.90;;;;;;5007467;28;20026;-69
2021/12/02 00:29:06;;;;;;;2.83;1.40;;;4.70;99.90;;;;;;5005966;28;20391;-69
2021/12/02 00:31:35;;;;;;;3.42;1.17;;;4.70;99.90;;;;;;5017082;28;20033;-69
2021/12/02 00:34:04;;;;;;;9.27;2.78;;;4.70;99.90;;;;;;5006155;28;20494;-69
2021/12/02 00:36:32;;;;;;;4.72;1.30;;;4.80;99.90;;;;;;5009655;28;20010;-69
2021/12/02 00:39:02;;;;;;;2.60;1.38;;;4.80;99.90;;;;;;5009043;28;20116;-69
2021/12/02 00:41:28;;;;;;;;;;;4.70;99.90;;;;;;5012366;28;20030;-69
2021/12/02 00:43:56;;;;;;;2.03;1.10;;;4.80;99.90;;;;;;4998079;28;19932;-69
2021/12/02 00:46:24;;;;;;;1.58;0.95;;;4.80;99.90;;;;;;5012471;28;20020;-69
2021/12/02 00:48:50;;;;;;;1.02;0.93;;;4.80;99.90;;;;;;5022269;28;20031;-69
2021/12/02 00:51:18;;;;;;;3.35;1.42;;;4.80;99.90;;;;;;5013116;28;20083;-69
2021/12/02 00:53:51;;;;;;;3.50;1.25;;;4.70;99.90;;;;;;5014671;28;20018;-69
2021/12/02 00:56:20;;;;;;;3.05;1.63;;;4.70;99.90;;;;;;5013075;28;20033;-69
2021/12/02 00:58:47;;;;;;;8.00;2.00;;;4.70;99.90;;;;;;5012163;28;20723;-69
2021/12/02 01:01:17;;;;;;;0.90;0.80;;;4.70;99.90;;;;;;5000555;28;20130;-69
2021/12/02 01:03:43;;;;;;;1.98;1.48;;;4.80;99.90;;;;;;5011133;28;20112;-68
2021/12/02 01:06:10;;;;;;;4.57;1.58;;;4.80;99.90;;;;;;5015514;28;20102;-69
2021/12/02 01:08:37;;;;;;;2.65;1.25;;;4.80;99.90;;;;;;5012142;28;20041;-69
2021/12/02 01:11:04;;;;;;;0.93;0.90;;;4.70;99.90;;;;;;5018192;28;20025;-69
2021/12/02 01:13:30;;;;;;;0.90;0.80;;;4.80;99.90;;;;;;5004858;28;20027;-69
2021/12/02 01:15:56;;;;;;;5.40;1.48;;;4.80;99.90;;;;;;5014163;28;20037;-69
2021/12/02 01:18:22;;;;;;;1.92;1.10;;;4.80;99.90;;;;;;5017858;28;20024;-69
2021/12/02 01:20:49;;;;;;;1.13;0.88;;;4.70;99.90;;;;;;5011604;28;20495;-69
2021/12/02 01:23:20;;;;;;;2.30;1.17;;;4.80;99.90;;;;;;5009019;28;20021;-68
2021/12/02 01:25:53;;;;;;;1.10;0.95;;;4.80;99.90;;;;;;5012788;28;20022;-68
2021/12/02 01:28:21;;;;;;;1.42;1.20;;;4.80;99.90;;;;;;5008830;28;20045;-68
2021/12/02 01:30:48;;;;;;;4.63;1.60;;;4.80;99.90;;;;;;5006928;28;20054;-69
2021/12/02 01:33:16;;;;;;;3.22;1.13;;;4.80;99.90;;;;;;5009980;28;20080;-69
2021/12/02 01:35:47;;;;;;;6.90;1.08;;;4.80;99.90;;;;;;5010614;28;20028;-69
2021/12/02 01:38:13;;;;;;;5.47;1.23;;;4.80;99.90;;;;;;5016393;28;20072;-69
2021/12/02 01:40:39;;;;;;;6.00;1.23;;;4.70;99.90;;;;;;5009978;28;20030;-69
2021/12/02 01:43:06;;;;;;;7.75;1.80;;;4.80;99.90;;;;;;5016446;28;20034;-69
2021/12/02 01:45:33;;;;;;;2.33;1.05;;;4.80;99.90;;;;;;5004670;28;20033;-68
2021/12/02 01:48:02;;;;;;;10.77;1.67;;;4.80;99.90;;;;;;5015255;28;20540;-68
2021/12/02 01:50:29;;;;;;;2.90;2.10;;;4.80;99.90;;;;;;5009782;28;20129;-68
2021/12/02 01:53:01;;;;;;;7.15;1.42;;;4.80;99.90;;;;;;5005695;28;20030;-68
2021/12/02 01:55:28;;;;;;;3.50;1.35;;;4.80;99.90;;;;;;5010326;28;20092;-68
2021/12/02 01:58:00;;;;;;;3.63;1.45;;;4.80;99.90;;;;;;5011113;28;20026;-68
2021/12/02 02:00:43;;;;;;;1.58;1.17;;;4.90;99.90;;;;;;5011885;28;20024;-68
2021/12/02 02:03:11;;;;;;;7.05;2.00;;;4.70;99.90;;;;;;5004331;28;20045;-69
2021/12/02 02:05:37;;;;;;;3.10;2.13;;;4.80;99.90;;;;;;4997166;28;20034;-69
2021/12/02 02:08:15;;;;;;;6.00;1.48;;;4.70;99.90;;;;;;4997381;28;20033;-69
2021/12/02 02:10:42;;;;;;;4.35;2.05;;;4.70;99.90;;;;;;4994721;28;20022;-69
2021/12/02 02:13:10;;;;;;;6.28;1.08;;;4.70;99.90;;;;;;5001339;28;20632;-69
2021/12/02 02:15:37;;;;;;;5.05;1.95;;;4.70;99.90;;;;;;5011092;28;20045;-69
2021/12/02 02:20:51;;;;;;;2.80;1.20;;;4.60;99.90;;;;;;5009948;28;20026;-69
2021/12/02 02:23:16;;;;;;;3.47;1.77;;;4.60;99.90;;;;;;4999049;28;20021;-69
2021/12/02 02:25:43;;;;;;;5.82;1.45;;;4.60;99.90;;;;;;4992968;28;20019;-69
2021/12/02 02:28:09;;;;;;;3.05;1.40;;;4.60;99.90;;;;;;5003031;28;20065;-68
2021/12/02 02:30:34;;;;;;;2.17;1.33;;;4.60;99.90;;;;;;5011482;28;20115;-68
2021/12/02 02:33:00;;;;;;;3.42;1.40;;;4.60;99.90;;;;;;5017540;28;20030;-68
2021/12/02 02:35:26;;;;;;;1.45;1.10;;;4.60;99.90;;;;;;5011789;28;20157;-68
2021/12/02 02:37:52;;;;;;;5.88;2.08;;;4.60;99.90;;;;;;5003924;28;20019;-68
2021/12/02 02:40:18;;;;;;;9.93;1.67;;;4.60;99.90;;;;;;4995282;28;20022;-69
2021/12/02 02:42:48;;;;;;;4.30;1.52;;;4.60;99.90;;;;;;5020397;28;20331;-69
2021/12/02 02:45:13;;;;;;;2.67;1.52;;;4.60;99.90;;;;;;5007821;28;20023;-70
2021/12/02 02:47:39;;;;;;;7.75;2.45;;;4.60;99.90;;;;;;5016340;28;20433;-69
2021/12/02 02:50:06;;;;;;;5.57;1.60;;;4.60;99.90;;;;;;5022418;28;20030;-68
2021/12/02 02:52:32;;;;;;;0.95;0.85;;;4.60;99.90;;;;;;5014367;28;20030;-68
2021/12/02 02:54:58;;;;;;;1.58;1.10;;;4.60;99.90;;;;;;5022087;28;20022;-68
2021/12/02 02:57:28;;;;;;;2.55;1.20;;;4.60;99.90;;;;;;5016601;28;20505;-69
2021/12/02 03:00:13;;;;;;;8.40;1.67;;;4.60;99.90;;;;;;5004646;28;20474;-69
2021/12/02 03:05:37;;;;;;;7.22;1.50;;;4.60;99.90;;;;;;5009346;28;20083;-69
2021/12/02 03:08:14;;;;;;;2.42;1.35;;;4.60;99.90;;;;;;5005016;28;20530;-69
2021/12/02 03:10:45;;;;;;;6.05;1.35;;;4.60;99.90;;;;;;5004170;28;20018;-69
2021/12/02 03:13:22;;;;;;;0.85;0.82;;;4.60;99.90;;;;;;5020779;28;20584;-69
2021/12/02 03:18:35;;;;;;;25.10;2.80;;;4.60;99.90;;;;;;5011162;28;20080;-68
2021/12/02 03:21:01;;;;;;;2.97;1.55;;;4.60;99.90;;;;;;5010560;28;20436;-68
2021/12/02 03:23:27;;;;;;;3.60;1.95;;;4.50;99.90;;;;;;5011134;28;20333;-68
2021/12/02 03:25:53;;;;;;;3.53;1.50;;;4.60;99.90;;;;;;5010715;28;20663;-69
2021/12/02 03:28:18;;;;;;;2.10;1.48;;;4.50;99.90;;;;;;5004066;28;20215;-69
2021/12/02 03:30:44;;;;;;;4.90;2.10;;;4.40;99.90;;;;;;5007622;28;20021;-68
2021/12/02 03:33:10;;;;;;;4.32;2.25;;;4.20;99.90;;;;;;5007860;28;20034;-68
2021/12/02 03:35:36;;;;;;;6.40;2.67;;;4.00;99.90;;;;;;4999276;28;20030;-69
2021/12/02 03:38:01;;;;;;;9.82;3.63;;;3.90;99.90;;;;;;5006574;28;20030;-69
2021/12/02 03:40:27;;;;;;;7.03;3.08;;;3.90;99.90;;;;;;5004264;28;20425;-69
2021/12/02 03:42:54;;;;;;;9.27;2.03;;;3.90;99.90;;;;;;4999314;28;20018;-69
2021/12/02 03:45:24;;;;;;;4.28;2.13;;;3.90;99.90;;;;;;4995355;28;20026;-69
2021/12/02 03:47:50;;;;;;;5.15;2.95;;;3.90;99.90;;;;;;5005237;28;20116;-69
2021/12/02 03:50:16;;;;;;;8.18;2.50;;;3.90;99.90;;;;;;5008719;28;20049;-69
2021/12/02 03:52:42;;;;;;;4.40;1.65;;;3.80;99.90;;;;;;4997072;28;20298;-69
2021/12/02 03:55:08;;;;;;;4.15;2.00;;;3.90;99.90;;;;;;5005450;28;20029;-69
2021/12/02 03:57:33;;;;;;;6.18;3.03;;;3.90;99.90;;;;;;5003635;28;20037;-69
2021/12/02 04:00:01;;;;;;;3.58;1.90;;;3.90;99.90;;;;;;5015843;28;20025;-69
2021/12/02 04:02:27;;;;;;;6.93;3.33;;;3.80;99.90;;;;;;5001308;28;20052;-69
2021/12/02 04:04:53;;;;;;;3.95;2.75;;;3.90;99.90;;;;;;5014261;28;20026;-69
2021/12/02 04:07:20;;;;;;;3.25;1.90;;;3.80;99.90;;;;;;5006928;28;20030;-69
2021/12/02 04:09:47;;;;;;;4.55;2.13;;;3.80;99.90;;;;;;5010544;28;20022;-69
2021/12/02 04:12:23;;;;;;;20.77;2.85;;;3.80;99.90;;;;;;5011418;28;20080;-69
2021/12/02 04:15:10;;;;;;;3.38;1.98;;;3.80;99.90;;;;;;5011670;28;20022;-69
2021/12/02 04:17:42;;;;;;;3.47;2.08;;;3.70;99.90;;;;;;5011534;28;20018;-69
2021/12/02 04:20:16;;;;;;;8.90;3.00;;;3.70;99.90;;;;;;5014081;28;20270;-69
2021/12/02 04:22:43;;;;;;;15.32;3.85;;;3.70;99.90;;;;;;5009208;28;20018;-69
2021/12/02 04:25:09;;;;;;;9.43;1.83;;;3.70;99.90;;;;;;5009511;28;20038;-69
2021/12/02 04:27:35;;;;;;;10.20;3.75;;;3.70;99.90;;;;;;5001015;28;20064;-69
2021/12/02 04:30:06;;;;;;;2.35;1.67;;;3.70;99.90;;;;;;5002501;28;20394;-69
2021/12/02 04:32:32;;;;;;;6.13;2.45;;;3.80;99.90;;;;;;5019816;28;20033;-69
2021/12/02 04:34:58;;;;;;;10.73;3.45;;;3.80;99.90;;;;;;5007961;28;20033;-69
2021/12/02 04:37:23;;;;;;;11.80;4.05;;;3.80;99.90;;;;;;5007807;28;20470;-69
2021/12/02 04:39:49;;;;;;;6.75;2.67;;;3.80;99.90;;;;;;5004502;28;20121;-69
2021/12/02 04:42:15;;;;;;;5.85;2.25;;;3.80;99.90;;;;;;5006510;28;20037;-69
2021/12/02 04:44:41;;;;;;;7.72;3.40;;;3.90;99.90;;;;;;4996576;28;20034;-68
2021/12/02 04:47:06;;;;;;;9.43;4.07;;;3.90;99.90;;;;;;5002867;28;20164;-68
2021/12/02 04:49:32;;;;;;;4.70;2.10;;;3.90;99.90;;;;;;5009646;28;20030;-68
2021/12/02 04:51:58;;;;;;;3.97;2.05;;;3.90;99.90;;;;;;5009977;28;20526;-68
2021/12/02 04:54:24;;;;;;;3.88;2.20;;;3.90;99.90;;;;;;5009978;28;20352;-69
2021/12/02 04:56:49;;;;;;;2.45;1.45;;;3.90;99.90;;;;;;5011009;28;20025;-68
2021/12/02 05:02:39;;;;;;;5.25;2.67;;;3.80;99.90;;;;;;5001285;28;20044;-69
2021/12/02 05:05:06;;;;;;;5.18;1.95;;;3.90;99.90;;;;;;5009743;28;20017;-68
2021/12/02 05:07:32;;;;;;;4.53;2.28;;;3.90;99.90;;;;;;5014337;28;20014;-68
2021/12/02 05:09:57;;;;;;;4.75;1.58;;;3.80;99.90;;;;;;5009875;28;20093;-68
2021/12/02 05:12:23;;;;;;;2.20;1.42;;;3.90;99.90;;;;;;5021698;28;20021;-69
2021/12/02 05:14:49;;;;;;;4.95;1.83;;;3.80;99.90;;;;;;5018718;28;20056;-68
2021/12/02 05:17:15;;;;;;;5.30;2.85;;;3.80;99.90;;;;;;5020919;28;20109;-68
2021/12/02 05:19:40;;;;;;;6.10;2.47;;;3.80;99.90;;;;;;5018992;28;20541;-68
2021/12/02 05:22:07;;;;;;;6.63;1.73;;;3.80;99.90;;;;;;5020151;28;20405;-69
2021/12/02 05:24:33;;;;;;;5.88;1.98;;;3.80;99.90;;;;;;5020291;28;20030;-68
2021/12/02 05:26:59;;;;;;;4.32;1.48;;;3.80;99.90;;;;;;5025306;28;20155;-68
2021/12/02 05:29:25;;;;;;;5.07;1.95;;;3.80;99.90;;;;;;5022596;28;20639;-68
2021/12/02 05:31:50;;;;;;;1.95;1.38;;;3.80;99.90;;;;;;5017895;28;20084;-68
2021/12/02 05:34:16;;;;;;;2.58;1.70;;;3.80;99.90;;;;;;5011985;28;20027;-69
2021/12/02 05:36:41;;;;;;;4.20;1.85;;;3.70;99.90;;;;;;5026212;28;20040;-68
2021/12/02 05:39:07;;;;;;;7.65;2.65;;;3.70;99.90;;;;;;5021957;28;20498;-68
2021/12/02 05:41:33;;;;;;;1.67;1.02;;;3.60;99.90;;;;;;5005611;28;20113;-68
2021/12/02 05:44:00;;;;;;;2.13;1.40;;;3.50;99.90;;;;;;5026612;28;20029;-68
2021/12/02 05:46:25;;;;;;;4.13;1.65;;;3.50;99.90;;;;;;5027511;28;20044;-68
2021/12/02 05:48:51;;;;;;;2.50;1.60;;;3.50;99.90;;;;;;5027291;28;20481;-68
2021/12/02 05:51:17;;;;;;;6.47;2.72;;;3.60;99.90;;;;;;5023880;28;20017;-68
2021/12/02 05:53:42;;;;;;;6.20;2.80;;;3.50;99.90;;;;;;5026781;28;20088;-68
2021/12/02 05:56:08;;;;;;;2.75;1.48;;;3.60;99.90;;;;;;5021228;28;20036;-68
2021/12/02 05:58:34;;;;;;;3.58;1.73;;;3.60;99.90;;;;;;5021465;28;20083;-69
2021/12/02 06:00:59;;;;;;;12.07;2.47;;;3.60;99.90;;;;;;5024842;28;20477;-68
2021/12/02 06:03:25;;;;;;;4.13;1.85;;;3.60;99.90;;;;;;5019850;28;20061;-68
2021/12/02 06:05:50;;;;;;;8.40;3.55;;;3.50;99.90;;;;;;5022554;28;20105;-69
2021/12/02 06:08:16;;;;;;;11.07;3.33;;;3.50;99.90;;;;;;5026252;28;20017;-68
2021/12/02 06:10:42;;;;;;;3.15;1.52;;;3.50;99.90;;;;;;4999850;28;20089;-68
2021/12/02 06:13:08;;;;;;;7.88;1.67;;;3.50;99.90;;;;;;5005771;28;20039;-69
2021/12/02 06:15:34;;;;;;;2.22;1.27;;;3.40;99.90;;;;;;5018904;28;20367;-68
2021/12/02 06:17:59;;;;;;;3.72;1.50;;;3.40;99.90;;;;;;5017813;28;20028;-68
2021/12/02 06:20:25;;;;;;;1.45;1.20;;;3.40;99.90;;;;;;5022038;28;20708;-69
2021/12/02 06:22:51;;;;;;;7.80;2.40;;;3.40;99.90;;;;;;5018568;28;20108;-68
2021/12/02 06:25:44;;;;;;;4.30;1.55;;;3.40;99.90;;;;;;5019658;28;20044;-69
2021/12/02 06:28:04;;;;;;;2.55;1.33;;;3.40;99.90;;;;;;5010013;28;20121;-69
2021/12/02 06:30:31;;;;;;;2.63;1.58;;;3.50;99.90;;;;;;5016576;28;20108;-68
2021/12/02 06:32:56;;;;;;;5.88;2.42;;;3.50;99.90;;;;;;5004533;28;20033;-68
2021/12/02 06:35:22;;;;;;;1.60;1.15;;;3.50;99.90;;;;;;5015045;28;20029;-68
2021/12/02 06:37:49;;;;;;;2.92;1.40;;;3.50;99.90;;;;;;5013515;28;20029;-68
2021/12/02 06:40:15;;;;;;;3.22;1.45;;;3.50;99.90;;;;;;5010825;28;20080;-68
2021/12/02 06:42:41;;;;;;;2.17;1.17;;;3.50;99.90;;;;;;5010169;28;20033;-68
2021/12/02 06:45:10;;;;;;;3.03;1.65;;;3.50;99.90;;;;;;5001417;28;20054;-69
2021/12/02 06:47:39;;;;;;;3.53;1.52;;;3.50;99.90;;;;;;4998897;28;20076;-68
2021/12/02 06:50:09;;;;;;;5.57;1.73;;;3.50;99.90;;;;;;5008693;28;20126;-68
2021/12/02 06:52:35;;;;;;;1.95;1.30;;;3.50;99.90;;;;;;5004717;28;20121;-68
2021/12/02 06:55:02;;;;;;;2.10;1.17;;;3.50;99.90;;;;;;5020724;28;20035;-69
2021/12/02 06:57:27;;;;;;;3.17;1.52;;;3.50;99.90;;;;;;5023120;28;20034;-68
2021/12/02 06:59:53;;;;;;;6.00;2.17;;;3.50;99.90;;;;;;5008405;28;20114;-68
2021/12/02 07:02:19;;;;;;;2.72;1.48;;;3.50;99.90;;;;;;5001483;28;20074;-68
2021/12/02 07:04:46;;;;;;;2.70;1.55;;;3.50;99.90;;;;;;5007847;28;20029;-68
2021/12/02 07:07:12;;;;;;;2.60;1.55;;;3.50;99.90;;;;;;5018816;28;20036;-68
2021/12/02 07:09:37;;;;;;;3.60;1.10;;;3.50;99.90;;;;;;5020665;28;20389;-68
2021/12/02 07:12:03;;;;;;;3.25;1.83;;;3.40;99.90;;;;;;5021772;28;20026;-68
2021/12/02 07:14:29;;;;;;;2.35;1.25;;;3.50;99.90;;;;;;5015492;28;20025;-68
2021/12/02 07:16:57;;;;;;;2.40;1.30;;;3.50;99.90;;;;;;5002270;28;20034;-68
2021/12/02 07:19:22;;;;;;;2.10;0.90;;;3.40;99.90;;;;;;5011668;28;20481;-69
2021/12/02 07:21:48;;;;;;;2.33;1.40;;;3.40;99.90;;;;;;5005808;28;20041;-68
2021/12/02 07:24:15;;;;;;;2.10;1.33;;;3.40;99.90;;;;;;5011195;28;20033;-68
2021/12/02 07:26:43;;;;;;;3.33;2.22;;;3.40;99.90;;;;;;5011476;28;20021;-68
2021/12/02 07:29:10;;;;;;;3.67;1.52;;;3.40;99.90;;;;;;5015609;28;20406;-68
2021/12/02 07:31:38;;;;;;;5.57;1.77;;;3.40;99.90;;;;;;5016602;28;20049;-68
2021/12/02 07:34:04;;;;;;;4.07;1.92;;;3.40;99.90;;;;;;5014894;28;20029;-68
2021/12/02 07:36:31;;;;;;;1.88;1.25;;;3.40;99.90;;;;;;5017728;28;20026;-68
2021/12/02 07:39:00;;;;;;;2.58;1.63;;;3.50;99.90;;;;;;5000245;28;20030;-68
2021/12/02 07:41:26;;;;;;;7.68;2.22;;;3.40;99.90;;;;;;5012814;28;20131;-68
2021/12/02 07:43:52;;;;;;;3.88;1.55;;;3.40;99.90;;;;;;5011369;28;20037;-68
2021/12/02 07:46:17;;;;;;;3.55;1.58;;;3.30;99.90;;;;;;5014553;28;20037;-68
2021/12/02 07:48:43;;;;;;;3.70;1.80;;;3.20;99.90;;;;;;5023594;28;20378;-68
2021/12/02 07:51:12;;;;;;;5.22;1.90;;;3.20;99.90;;;;;;5010396;28;20026;-68
2021/12/02 07:53:43;;;;;;;7.38;2.92;;;3.20;99.90;;;;;;5013512;28;20137;-68
2021/12/02 07:56:11;;;;;;;3.42;1.85;;;3.10;99.90;;;;;;5008347;28;20034;-69
2021/12/02 07:58:40;;;;;;;6.10;2.42;;;3.20;99.90;;;;;;5008543;28;20022;-68
2021/12/02 08:01:07;;;;;;;5.50;1.88;;;3.20;99.90;;;;;;5006215;28;20073;-68
2021/12/02 08:03:33;;;;;;;7.95;3.47;;;3.30;99.90;;;;;;5001973;28;20046;-68
2021/12/02 08:05:59;;;;;;;7.65;3.13;;;3.30;99.90;;;;;;5007232;28;20060;-68
2021/12/02 08:08:24;;;;;;;4.68;2.35;;;3.20;99.90;;;;;;5004892;28;20034;-69
2021/12/02 08:10:50;;;;;;;5.03;3.03;;;3.10;99.90;;;;;;5012048;28;20026;-68
2021/12/02 08:13:16;;;;;;;6.05;2.35;;;3.10;99.90;;;;;;5009276;28;20779;-68
2021/12/02 08:15:43;;;;;;;9.27;4.05;;;3.20;99.90;;;;;;5014802;28;20782;-68
2021/12/02 08:18:09;;;;;;;9.18;2.90;;;3.20;99.90;;;;;;5017147;28;20078;-68
2021/12/02 08:20:36;;;;;;;4.22;2.38;;;3.20;99.90;;;;;;5008547;28;20026;-68
2021/12/02 08:23:03;;;;;;;6.13;2.90;;;3.20;99.90;;;;;;5007424;28;20053;-68
2021/12/02 08:25:30;;;;;;;5.72;3.25;;;3.20;99.90;;;;;;5020290;28;20122;-68
2021/12/02 08:28:01;;;;;;;6.40;3.25;;;3.20;99.90;;;;;;5012262;28;20022;-68
2021/12/02 08:30:28;;;;;;;;;;;3.20;99.90;;;;;;5021197;28;20021;-68
2021/12/02 08:32:55;;;;;;;6.07;2.72;;;3.20;99.90;;;;;;5014497;28;19913;-68
2021/12/02 08:35:22;;;;;;;5.75;1.70;;;3.30;99.90;;;;;;5001199;28;20015;-68
2021/12/02 08:37:50;;;;;;;9.85;3.33;;;3.30;99.90;;;;;;5016648;28;20026;-68
2021/12/02 08:40:32;;;;;;;7.18;2.08;;;3.30;99.90;;;;;;5003253;28;20025;-69
2021/12/02 08:43:00;;;;;;;4.10;2.13;;;3.30;99.90;;;;;;5000773;28;20022;-68
2021/12/02 08:45:27;;;;;;;3.75;2.05;;;3.30;99.90;;;;;;5010978;28;20029;-68
2021/12/02 08:47:54;;;;;;;7.15;2.92;;;3.30;99.90;;;;;;4997617;28;20108;-68
2021/12/02 08:50:20;;;;;;;5.70;3.03;;;3.30;99.90;;;;;;5007313;28;20041;-68
2021/12/02 08:52:48;;;;;;;7.50;3.20;;;3.30;99.90;;;;;;4997339;28;20030;-68
2021/12/02 08:55:15;;;;;;;3.22;1.98;;;3.40;99.90;;;;;;5007711;28;20025;-68
2021/12/02 08:57:41;;;;;;;6.05;2.55;;;3.30;99.90;;;;;;5000944;28;20030;-68
2021/12/02 09:00:09;;;;;;;8.52;3.03;;;3.40;99.90;;;;;;5014328;28;20022;-68
2021/12/02 09:02:35;;;;;;;1.67;1.00;;;3.20;99.90;;;;;;5006196;28;20045;-68
2021/12/02 09:05:01;;;;;;;3.22;1.67;;;3.20;99.90;;;;;;5007699;28;20037;-68
2021/12/02 09:07:27;;;;;;;4.45;1.90;;;3.20;99.90;;;;;;5006085;28;20398;-68
2021/12/02 09:09:52;;;;;;;3.90;1.63;;;3.30;99.90;;;;;;5006087;28;20115;-68
2021/12/02 09:12:18;;;;;;;5.68;1.05;;;3.50;99.90;;;;;;5005582;28;20053;-68
2021/12/02 09:14:44;;;;;;;4.95;1.67;;;3.40;99.90;;;;;;5003936;28;20119;-68
2021/12/02 09:17:09;;;;;;;1.27;1.13;;;3.40;99.90;;;;;;5006374;28;20038;-68
2021/12/02 09:19:35;;;;;;;1.00;0.90;;;3.30;99.90;;;;;;5007560;28;20022;-69
2021/12/02 09:22:01;;;;;;;3.90;2.08;;;3.30;99.90;;;;;;5006594;28;20105;-68
2021/12/02 09:24:26;;;;;;;2.28;1.23;;;3.20;99.90;;;;;;5003852;28;20036;-68
2021/12/02 09:26:54;;;;;;;1.65;1.35;;;3.10;99.90;;;;;;5004455;28;20509;-68
2021/12/02 09:29:21;;;;;;;0.88;0.85;;;3.10;99.90;;;;;;5004722;28;20030;-68
2021/12/02 09:31:48;;;;;;;8.60;2.58;;;3.20;99.90;;;;;;5003514;28;20029;-68
2021/12/02 09:34:14;;;;;;;3.55;1.52;;;3.20;99.90;;;;;;5005975;28;20030;-68
2021/12/02 09:36:40;;;;;;;3.75;2.15;;;3.30;99.90;;;;;;5004188;28;20037;-68
2021/12/02 09:39:08;;;;;;;2.40;1.55;;;3.40;99.90;;;;;;5003812;28;20398;-68
2021/12/02 09:41:35;;;;;;;2.28;1.17;;;3.50;99.90;;;;;;5005257;28;20036;-68
2021/12/02 09:44:01;;;;;;;1.92;1.23;;;3.50;99.90;;;;;;5006439;28;20188;-68
2021/12/02 09:46:27;;;;;;;7.18;2.05;;;3.90;99.90;;;;;;5004165;28;20033;-68
2021/12/02 09:48:54;;;;;;;1.67;1.13;;;4.60;99.90;;;;;;5006470;28;20036;-68
2021/12/02 09:51:24;;;;;;;1.00;0.90;;;4.50;99.90;;;;;;5002266;28;20026;-68
2021/12/02 09:53:56;;;;;;;2.78;1.48;;;4.10;99.90;;;;;;5004542;28;20385;-68
2021/12/02 09:56:32;;;;;;;2.08;0.82;;;4.10;99.90;;;;;;4998704;28;20113;-68
2021/12/02 09:59:12;;;;;;;2.53;1.05;;;4.40;99.90;;;;;;5008387;28;20025;-68
2021/12/02 10:01:44;;;;;;;2.58;1.40;;;4.40;99.90;;;;;;5006344;28;20494;-68
2021/12/02 10:04:11;;;;;;;1.25;0.93;;;4.20;99.90;;;;;;5008753;28;20053;-68
2021/12/02 10:06:40;;;;;;;2.50;0.95;;;3.90;99.90;;;;;;5005633;28;20045;-68
2021/12/02 10:09:23;;;;;;;2.20;1.30;;;3.80;99.90;;;;;;5004511;28;20058;-68
2021/12/02 10:14:27;;;;;;;1.88;1.17;;;3.70;99.90;;;;;;5009324;28;20033;-68
2021/12/02 10:17:15;;;;;;;25.35;2.58;;;3.70;99.90;;;;;;5008571;28;20018;-68
2021/12/02 10:20:33;;;;;;;2.33;1.23;;;3.70;99.90;;;;;;5008187;28;20089;-68
2021/12/02 10:23:14;;;;;;;3.00;1.85;;;3.80;99.90;;;;;;5006052;28;20049;-68
2021/12/02 10:25:43;;;;;;;1.80;1.33;;;3.70;99.90;;;;;;5007287;28;20068;-68
2021/12/02 10:28:11;;;;;;;4.40;1.77;;;3.60;99.90;;;;;;5005974;28;20034;-69
2021/12/02 10:30:47;;;;;;;1.95;1.50;;;3.60;99.90;;;;;;5005432;28;20108;-68
2021/12/02 10:33:13;;;;;;;1.02;0.93;;;3.50;99.90;;;;;;4999543;28;20022;-68
2021/12/02 10:35:49;;;;;;;2.95;1.50;;;3.60;99.90;;;;;;5006550;28;20095;-68
2021/12/02 10:38:42;;;;;;;2.95;1.65;;;3.60;99.90;;;;;;5005699;28;20024;-68
2021/12/02 10:41:11;;;;;;;7.05;2.58;;;3.60;99.90;;;;;;5009086;28;20030;-68
2021/12/02 10:44:14;;;;;;;4.23;1.80;;;3.60;99.90;;;;;;5007667;28;20113;-68
2021/12/02 10:46:53;;;;;;;1.70;1.10;;;3.50;99.90;;;;;;5000430;28;20554;-68
2021/12/02 10:49:20;;;;;;;3.35;1.67;;;3.50;99.90;;;;;;5003079;28;20072;-68
2021/12/02 10:51:51;;;;;;;2.83;1.63;;;3.50;99.90;;;;;;5012376;28;20071;-68
2021/12/02 10:54:24;;;;;;;6.78;2.00;;;3.60;99.90;;;;;;5006390;28;20034;-68
2021/12/02 10:56:53;;;;;;;2.80;1.30;;;3.60;99.90;;;;;;5005861;28;20027;-68
2021/12/02 10:59:25;;;;;;;4.38;1.67;;;3.60;99.90;;;;;;5009498;28;20066;-68
2021/12/02 11:01:57;;;;;;;3.72;2.08;;;3.50;99.90;;;;;;5010995;28;20026;-68
2021/12/02 11:04:24;;;;;;;2.05;1.40;;;3.40;99.90;;;;;;5008977;28;20038;-68
2021/12/02 11:06:51;;;;;;;2.80;1.45;;;3.50;99.90;;;;;;5005425;28;20038;-68
2021/12/02 11:09:29;;;;;;;4.10;1.83;;;3.50;99.90;;;;;;5010501;28;20026;-68
2021/12/02 11:12:14;;;;;;;3.78;1.85;;;3.50;99.90;;;;;;5016434;28;20040;-68
2021/12/02 11:15:02;;;;;;;3.22;1.40;;;3.50;99.90;;;;;;5009281;28;20056;-68
2021/12/02 11:17:30;;;;;;;2.53;1.60;;;3.60;99.90;;;;;;4990678;28;20026;-68
2021/12/02 11:19:58;;;;;;;2.15;1.20;;;3.60;99.90;;;;;;5011740;28;20026;-68
2021/12/02 11:22:27;;;;;;;21.83;1.98;;;3.60;99.90;;;;;;5018097;28;20026;-68
2021/12/02 11:24:53;;;;;;;4.10;1.52;;;3.50;99.90;;;;;;5047107;28;20088;-68
2021/12/02 11:27:44;;;;;;;1.33;1.00;;;3.50;99.90;;;;;;5007983;28;20053;-68
2021/12/02 11:30:16;;;;;;;3.78;1.58;;;3.50;99.90;;;;;;5000101;28;20030;-68
2021/12/02 11:33:00;;;;;;;2.15;1.40;;;3.50;99.90;;;;;;5006986;28;20030;-68
2021/12/02 11:35:33;;;;;;;15.60;1.92;;;3.50;99.90;;;;;;5000439;28;20018;-68
2021/12/02 11:38:04;;;;;;;1.05;0.90;;;3.50;99.90;;;;;;5006877;28;20026;-68
2021/12/02 11:40:38;;;;;;;1.48;1.10;;;3.60;99.90;;;;;;5012156;28;20026;-68
2021/12/02 11:43:04;;;;;;;1.05;0.95;;;3.60;99.90;;;;;;5007522;28;20101;-68
2021/12/02 11:45:32;;;;;;;1.15;1.00;;;3.60;99.90;;;;;;5019593;28;20026;-68
2021/12/02 11:47:58;;;;;;;2.88;1.23;;;3.50;99.90;;;;;;5015393;28;20036;-68
2021/12/02 11:50:26;;;;;;;3.05;1.77;;;3.50;99.90;;;;;;5013319;28;20029;-68
2021/12/02 11:52:52;;;;;;;1.30;1.13;;;3.50;99.90;;;;;;5006032;28;20049;-68
2021/12/02 11:55:22;;;;;;;2.28;1.10;;;3.60;99.90;;;;;;5008281;28;20030;-68
2021/12/02 11:57:49;;;;;;;2.22;1.60;;;3.60;99.90;;;;;;5014624;28;20033;-68
2021/12/02 12:00:18;;;;;;;2.08;1.38;;;3.70;99.90;;;;;;5011053;28;20068;-68
2021/12/02 12:02:59;;;;;;;3.63;1.20;;;3.70;99.90;;;;;;5004182;28;20239;-68
2021/12/02 12:05:32;;;;;;;3.50;2.00;;;3.70;99.90;;;;;;5011545;28;20379;-68
2021/12/02 12:07:59;;;;;;;1.98;1.30;;;3.60;99.90;;;;;;5011582;28;20487;-68
2021/12/02 12:10:35;;;;;;;2.03;1.40;;;3.70;99.90;;;;;;5009048;28;20478;-68
2021/12/02 12:13:17;;;;;;;4.03;1.83;;;3.70;99.90;;;;;;5011789;28;20099;-68
2021/12/02 12:15:58;;;;;;;2.13;1.25;;;3.70;99.90;;;;;;5009957;28;20494;-68
2021/12/02 12:18:39;;;;;;;4.07;1.77;;;3.80;99.90;;;;;;5014439;28;20029;-68
2021/12/02 12:21:11;;;;;;;2.58;1.40;;;3.80;99.90;;;;;;5003776;28;20030;-68
2021/12/02 12:23:57;;;;;;;7.57;2.30;;;3.90;99.90;;;;;;5010777;28;20100;-68
2021/12/02 12:26:30;;;;;;;2.40;1.20;;;3.90;99.90;;;;;;5006784;28;20034;-68
2021/12/02 12:29:08;;;;;;;3.05;1.50;;;4.00;99.90;;;;;;5011627;28;20049;-68
2021/12/02 12:34:39;;;;;;;3.53;1.50;;;4.00;99.90;;;;;;5012404;28;20509;-69
2021/12/02 12:37:26;;;;;;;5.38;2.28;;;4.00;99.90;;;;;;5011597;28;20032;-68
2021/12/02 12:40:10;;;;;;;0.90;0.80;;;4.00;99.90;;;;;;5006873;28;20022;-68
2021/12/02 12:42:48;;;;;;;3.45;1.52;;;4.00;99.90;;;;;;5008892;28;20557;-68
2021/12/02 12:45:37;;;;;;;2.33;0.93;;;4.10;99.90;;;;;;4985891;28;20121;-68
2021/12/02 12:48:05;;;;;;;3.53;2.25;;;4.30;99.90;;;;;;5004442;28;20509;-68
2021/12/02 12:50:45;;;;;;;2.60;1.77;;;4.50;99.90;;;;;;5007456;28;20025;-68
2021/12/02 12:53:17;;;;;;;2.88;1.67;;;4.30;99.90;;;;;;5007046;28;20049;-68
2021/12/02 12:56:00;;;;;;;3.72;1.63;;;4.30;99.90;;;;;;5006780;28;20044;-68
2021/12/02 12:58:27;;;;;;;1.75;1.05;;;4.30;99.90;;;;;;5011639;28;20112;-68
2021/12/02 13:00:54;;;;;;;6.25;2.08;;;4.40;99.90;;;;;;5000978;28;20506;-68
2021/12/02 13:03:26;;;;;;;6.35;2.13;;;4.30;99.90;;;;;;5005972;28;20046;-68
2021/12/02 13:06:09;;;;;;;4.15;1.75;;;4.20;99.90;;;;;;5007276;28;20034;-68
2021/12/02 13:08:51;;;;;;;2.13;1.33;;;3.80;99.90;;;;;;5008964;28;20026;-68
2021/12/02 13:11:20;;;;;;;1.63;1.10;;;3.50;99.90;;;;;;5007965;28;20025;-68
2021/12/02 13:13:47;;;;;;;4.72;2.05;;;3.50;99.90;;;;;;5006851;28;20536;-68
2021/12/02 13:16:20;;;;;;;4.57;1.75;;;3.40;99.90;;;;;;5006877;28;20022;-68
2021/12/02 13:19:13;;;;;;;8.38;3.22;;;3.40;99.90;;;;;;5005744;28;20173;-68
2021/12/02 13:21:41;;;;;;;1.33;1.02;;;3.40;99.90;;;;;;4996724;28;20045;-68
2021/12/02 13:24:11;;;;;;;3.92;2.15;;;3.30;99.90;;;;;;5007721;28;20030;-68
2021/12/02 13:26:44;;;;;;;4.15;2.33;;;3.20;99.90;;;;;;5005100;28;20105;-68
2021/12/02 13:29:26;;;;;;;2.22;1.38;;;3.20;99.90;;;;;;5008136;28;20152;-68
2021/12/02 13:31:57;;;;;;;3.60;2.53;;;3.20;99.90;;;;;;5006499;28;20041;-68